Time;durP1;ratioP1;P1;durP2;ratioP2;P2;SDS_P1;SDS_P2;PMS_P1;PMS_P2;Temp;Humidity;BMP_temperature;BMP_pressure;BME280_temperature;BME280_humidity;BME280_pressure;Samples;Min_cycle;Max_cycle;Signal;HPM_P1;HPM_P2
2023/06/07 00:01:49;;;;;;;5.83;4.30;;;;;;;;;;5093185;28;20583;-67
2023/06/07 00:04:19;;;;;;;4.37;3.97;;;;;;;;;;5075230;28;20613;-67
2023/06/07 00:06:48;;;;;;;7.43;4.40;;;;;;;;;;5075874;28;20613;-67
2023/06/07 00:09:16;;;;;;;6.67;3.43;;;;;;;;;;5094202;28;20620;-67
2023/06/07 00:11:44;;;;;;;3.67;3.47;;;;;;;;;;5093790;28;20605;-67
2023/06/07 00:14:13;;;;;;;4.03;3.73;;;;;;;;;;5094181;28;20592;-67
2023/06/07 00:16:44;;;;;;;3.57;3.27;;;;;;;;;;5093897;28;20638;-67
2023/06/07 00:19:12;;;;;;;6.10;3.97;;;;;;;;;;5093540;28;20635;-66
2023/06/07 00:21:42;;;;;;;4.07;3.73;;;;;;;;;;5093388;28;20960;-67
2023/06/07 00:24:10;;;;;;;5.17;3.57;;;;;;;;;;5093521;28;21170;-67
2023/06/07 00:26:39;;;;;;;5.50;3.80;;;;;;;;;;5092864;28;20627;-67
2023/06/07 00:29:08;;;;;;;3.40;3.10;;;;;;;;;;5092760;28;21145;-67
2023/06/07 00:31:39;;;;;;;4.43;4.13;;;;;;;;;;5092930;28;20597;-67
2023/06/07 00:34:07;;;;;;;3.83;3.50;;;;;;;;;;5093396;28;20621;-67
2023/06/07 00:36:36;;;;;;;9.10;3.70;;;;;;;;;;5093374;28;20967;-66
2023/06/07 00:39:05;;;;;;;6.50;3.50;;;;;;;;;;5056569;28;21556;-67
2023/06/07 00:41:33;;;;;;;3.77;3.37;;;;;;;;;;5090024;28;20617;-66
2023/06/07 00:44:02;;;;;;;5.90;4.07;;;;;;;;;;5093665;28;20613;-67
2023/06/07 00:46:31;;;;;;;3.93;3.57;;;;;;;;;;5092599;28;20596;-67
2023/06/07 00:48:59;;;;;;;3.70;3.33;;;;;;;;;;5092766;28;20669;-67
2023/06/07 00:51:29;;;;;;;4.90;4.50;;;;;;;;;;5071355;28;20618;-66
2023/06/07 00:53:59;;;;;;;5.40;3.37;;;;;;;;;;5093156;28;20655;-67
2023/06/07 00:56:31;;;;;;;8.33;4.43;;;;;;;;;;5092439;28;20614;-67
2023/06/07 00:59:00;;;;;;;4.70;4.20;;;;;;;;;;5074876;28;20616;-67
2023/06/07 01:01:28;;;;;;;5.00;3.70;;;;;;;;;;5074601;28;20663;-66
2023/06/07 01:03:56;;;;;;;6.60;3.50;;;;;;;;;;5073296;28;20615;-67
2023/06/07 01:06:24;;;;;;;4.43;4.10;;;;;;;;;;5092374;28;20966;-67
2023/06/07 01:08:53;;;;;;;3.80;3.60;;;;;;;;;;5092837;28;20605;-67
2023/06/07 01:11:22;;;;;;;4.57;4.17;;;;;;;;;;5092217;28;20633;-67
2023/06/07 01:13:52;;;;;;;4.30;4.00;;;;;;;;;;5074380;28;21163;-67
2023/06/07 01:16:20;;;;;;;5.10;3.70;;;;;;;;;;5092286;28;20613;-67
2023/06/07 01:18:49;;;;;;;4.00;3.70;;;;;;;;;;5092299;28;21018;-67
2023/06/07 01:21:19;;;;;;;6.03;3.93;;;;;;;;;;5091855;28;21101;-67
2023/06/07 01:23:50;;;;;;;6.43;3.50;;;;;;;;;;5092282;28;20563;-67
2023/06/07 01:26:19;;;;;;;6.73;4.30;;;;;;;;;;5091961;28;20549;-67
2023/06/07 01:28:47;;;;;;;4.30;4.00;;;;;;;;;;5091614;28;20624;-67
2023/06/07 01:31:17;;;;;;;7.20;3.50;;;;;;;;;;5073717;28;21165;-67
2023/06/07 01:33:46;;;;;;;7.40;3.70;;;;;;;;;;5091320;28;21318;-66
2023/06/07 01:36:15;;;;;;;3.77;3.27;;;;;;;;;;5091994;28;20629;-67
2023/06/07 01:38:49;;;;;;;3.50;3.27;;;;;;;;;;5091118;28;20965;-67
2023/06/07 01:41:19;;;;;;;3.40;3.20;;;;;;;;;;5091690;28;20641;-67
2023/06/07 01:43:49;;;;;;;4.53;4.03;;;;;;;;;;5073550;28;20610;-67
2023/06/07 01:46:18;;;;;;;4.37;4.07;;;;;;;;;;5091991;28;20576;-67
2023/06/07 01:48:46;;;;;;;4.70;3.70;;;;;;;;;;5090975;28;20625;-66
2023/06/07 01:51:15;;;;;;;4.23;3.43;;;;;;;;;;5073737;28;20621;-67
2023/06/07 01:53:44;;;;;;;5.93;3.40;;;;;;;;;;5090856;28;21251;-67
2023/06/07 01:56:16;;;;;;;6.57;4.40;;;;;;;;;;5091297;28;20618;-66
2023/06/07 01:58:50;;;;;;;5.20;3.60;;;;;;;;;;5073158;28;21095;-66
2023/06/07 02:01:23;;;;;;;4.37;3.97;;;;;;;;;;5073555;28;20663;-67
2023/06/07 02:03:54;;;;;;;5.23;3.80;;;;;;;;;;5072180;28;20612;-67
2023/06/07 02:06:29;;;;;;;5.23;3.50;;;;;;;;;;5091948;28;20552;-67
2023/06/07 02:09:02;;;;;;;4.93;4.43;;;;;;;;;;5091203;28;20585;-67
2023/06/07 02:11:31;;;;;;;7.13;4.20;;;;;;;;;;5074266;28;20577;-67
2023/06/07 02:14:01;;;;;;;7.83;4.00;;;;;;;;;;5091358;28;20585;-67
2023/06/07 02:16:35;;;;;;;6.03;3.77;;;;;;;;;;5090472;28;20976;-67
2023/06/07 02:19:06;;;;;;;5.33;4.77;;;;;;;;;;5073762;28;20584;-67
2023/06/07 02:21:36;;;;;;;4.87;4.17;;;;;;;;;;5091714;28;20761;-67
2023/06/07 02:24:05;;;;;;;4.03;3.73;;;;;;;;;;5073964;28;20678;-67
2023/06/07 02:26:36;;;;;;;4.20;3.80;;;;;;;;;;5091635;28;20548;-67
2023/06/07 02:29:06;;;;;;;4.27;3.17;;;;;;;;;;5091164;28;20632;-67
2023/06/07 02:31:34;;;;;;;5.73;4.37;;;;;;;;;;5091065;28;21179;-67
2023/06/07 02:34:04;;;;;;;4.93;4.13;;;;;;;;;;5091276;28;20596;-67
2023/06/07 02:36:33;;;;;;;6.03;3.63;;;;;;;;;;5091367;28;20621;-66
2023/06/07 02:39:02;;;;;;;4.03;3.70;;;;;;;;;;5073184;28;20657;-67
2023/06/07 02:41:30;;;;;;;8.40;4.73;;;;;;;;;;5090639;28;21019;-67
2023/06/07 02:43:58;;;;;;;4.30;3.90;;;;;;;;;;5091121;28;21126;-67
2023/06/07 02:46:28;;;;;;;4.00;3.70;;;;;;;;;;5090927;28;20604;-67
2023/06/07 02:48:56;;;;;;;8.33;4.13;;;;;;;;;;5091308;28;20627;-67
2023/06/07 02:51:26;;;;;;;4.37;4.07;;;;;;;;;;5072899;28;20603;-65
2023/06/07 02:53:54;;;;;;;4.57;4.00;;;;;;;;;;5073292;28;20640;-67
2023/06/07 02:56:26;;;;;;;4.60;4.30;;;;;;;;;;5072520;28;20636;-66
2023/06/07 02:58:54;;;;;;;7.50;6.87;;;;;;;;;;5090383;28;20655;-67
2023/06/07 03:01:27;;;;;;;4.53;4.13;;;;;;;;;;5071201;28;21231;-67
2023/06/07 03:03:58;;;;;;;3.83;3.53;;;;;;;;;;5071706;28;20658;-67
2023/06/07 03:06:29;;;;;;;3.87;3.50;;;;;;;;;;5072534;28;20666;-66
2023/06/07 03:08:59;;;;;;;10.47;4.37;;;;;;;;;;5090859;28;20610;-67
2023/06/07 03:11:30;;;;;;;5.63;4.27;;;;;;;;;;5072215;28;20572;-67
2023/06/07 03:14:00;;;;;;;8.33;4.13;;;;;;;;;;5090898;28;20580;-67
2023/06/07 03:16:36;;;;;;;7.00;4.50;;;;;;;;;;5072541;28;20592;-65
2023/06/07 03:19:08;;;;;;;6.80;4.97;;;;;;;;;;5073136;28;20582;-65
2023/06/07 03:21:37;;;;;;;5.17;3.90;;;;;;;;;;5072029;28;20639;-66
2023/06/07 03:24:08;;;;;;;4.37;4.07;;;;;;;;;;5055058;28;21139;-67
2023/06/07 03:26:36;;;;;;;4.63;4.23;;;;;;;;;;5089931;28;20677;-67
2023/06/07 03:29:05;;;;;;;4.33;4.03;;;;;;;;;;5072921;28;20628;-67
2023/06/07 03:31:37;;;;;;;4.93;4.53;;;;;;;;;;5075374;28;20592;-66
2023/06/07 03:34:11;;;;;;;5.23;4.27;;;;;;;;;;5076571;28;20595;-67
2023/06/07 03:36:40;;;;;;;5.63;4.60;;;;;;;;;;5093812;28;20588;-66
2023/06/07 03:39:09;;;;;;;4.67;4.37;;;;;;;;;;5076306;28;20608;-66
2023/06/07 03:41:37;;;;;;;7.10;4.70;;;;;;;;;;5075990;28;20626;-66
2023/06/07 03:44:08;;;;;;;6.13;4.90;;;;;;;;;;5076299;28;20589;-66
2023/06/07 03:46:40;;;;;;;11.90;4.60;;;;;;;;;;5075846;28;20574;-66
2023/06/07 03:49:10;;;;;;;9.50;4.70;;;;;;;;;;5076500;28;21469;-67
2023/06/07 03:51:39;;;;;;;4.90;4.57;;;;;;;;;;5093897;28;20598;-66
2023/06/07 03:54:09;;;;;;;12.43;5.63;;;;;;;;;;5075835;28;20604;-67
2023/06/07 03:56:38;;;;;;;4.63;4.30;;;;;;;;;;5057933;28;20595;-68
2023/06/07 03:59:08;;;;;;;5.63;5.13;;;;;;;;;;5075680;28;20651;-66
2023/06/07 04:01:36;;;;;;;7.87;4.87;;;;;;;;;;5074202;28;20894;-66
2023/06/07 04:04:05;;;;;;;16.90;5.37;;;;;;;;;;5075107;28;20613;-67
2023/06/07 04:06:36;;;;;;;9.80;4.60;;;;;;;;;;5092977;28;20693;-67
2023/06/07 04:09:07;;;;;;;4.47;4.17;;;;;;;;;;5075969;28;20601;-68
2023/06/07 04:11:36;;;;;;;10.40;4.97;;;;;;;;;;5075582;28;21185;-64
2023/06/07 04:14:04;;;;;;;4.83;4.43;;;;;;;;;;5094141;28;20609;-66
2023/06/07 04:16:33;;;;;;;7.07;4.90;;;;;;;;;;5058582;28;20600;-67
2023/06/07 04:19:01;;;;;;;8.07;5.73;;;;;;;;;;5075722;28;20596;-66
2023/06/07 04:21:32;;;;;;;6.43;4.93;;;;;;;;;;5075464;28;20619;-67
2023/06/07 04:24:04;;;;;;;5.23;4.30;;;;;;;;;;5075530;28;20678;-67
2023/06/07 04:26:33;;;;;;;4.57;4.17;;;;;;;;;;5092989;28;20587;-67
2023/06/07 04:29:01;;;;;;;7.37;4.80;;;;;;;;;;5093350;28;21468;-67
2023/06/07 04:31:39;;;;;;;4.47;4.07;;;;;;;;;;5048414;28;21126;-67
2023/06/07 04:34:09;;;;;;;6.20;4.70;;;;;;;;;;5088353;28;21114;-67
2023/06/07 04:36:39;;;;;;;5.17;4.60;;;;;;;;;;5093069;28;20620;-68
2023/06/07 04:39:15;;;;;;;10.37;5.17;;;;;;;;;;5062419;28;21053;-63
2023/06/07 04:41:46;;;;;;;6.97;4.60;;;;;;;;;;5082479;28;20697;-64
2023/06/07 04:44:27;;;;;;;6.37;5.10;;;;;;;;;;5081699;28;21062;-64
2023/06/07 04:46:57;;;;;;;5.40;4.70;;;;;;;;;;5074874;28;20676;-62
2023/06/07 04:49:26;;;;;;;7.37;4.60;;;;;;;;;;5099239;28;20693;-62
2023/06/07 04:51:56;;;;;;;6.90;4.63;;;;;;;;;;5099505;28;20720;-62
2023/06/07 04:54:28;;;;;;;5.80;4.90;;;;;;;;;;5081372;28;20672;-62
2023/06/07 04:56:58;;;;;;;5.20;4.53;;;;;;;;;;5081404;28;20676;-62
2023/06/07 04:59:34;;;;;;;14.83;4.83;;;;;;;;;;5080750;28;21316;-63
2023/06/07 05:02:04;;;;;;;9.93;4.90;;;;;;;;;;5079635;28;20655;-63
2023/06/07 05:04:33;;;;;;;5.50;5.10;;;;;;;;;;5047405;28;20698;-64
2023/06/07 05:07:02;;;;;;;7.63;4.53;;;;;;;;;;5098252;28;20712;-63
2023/06/07 05:09:35;;;;;;;4.33;3.93;;;;;;;;;;5080073;28;20709;-63
2023/06/07 05:12:07;;;;;;;4.13;3.83;;;;;;;;;;5081173;28;20670;-62
2023/06/07 05:14:35;;;;;;;5.43;4.53;;;;;;;;;;5079846;28;20671;-62
2023/06/07 05:17:05;;;;;;;9.20;4.70;;;;;;;;;;5097100;28;20596;-62
2023/06/07 05:19:36;;;;;;;6.40;4.47;;;;;;;;;;5080632;28;20584;-64
2023/06/07 05:22:05;;;;;;;6.00;4.50;;;;;;;;;;5079333;28;20620;-64
2023/06/07 05:24:36;;;;;;;5.63;4.80;;;;;;;;;;5079947;28;20676;-63
2023/06/07 05:27:05;;;;;;;4.60;4.20;;;;;;;;;;5079524;28;20683;-63
2023/06/07 05:29:34;;;;;;;7.17;4.63;;;;;;;;;;5079439;28;20708;-62
2023/06/07 05:32:03;;;;;;;13.60;4.77;;;;;;;;;;5061210;28;20715;-62
2023/06/07 05:34:31;;;;;;;8.73;4.60;;;;;;;;;;5080095;28;20689;-62
2023/06/07 05:37:00;;;;;;;6.13;5.03;;;;;;;;;;5097327;28;20694;-63
2023/06/07 05:39:30;;;;;;;9.03;4.63;;;;;;;;;;5083758;28;20666;-61
2023/06/07 05:42:00;;;;;;;5.03;4.63;;;;;;;;;;5087790;28;20764;-63
2023/06/07 05:44:28;;;;;;;12.07;4.90;;;;;;;;;;5090120;28;21225;-62
2023/06/07 05:46:56;;;;;;;5.77;5.10;;;;;;;;;;5089618;28;20746;-64
2023/06/07 05:49:24;;;;;;;7.17;4.70;;;;;;;;;;5107843;28;20695;-62
2023/06/07 05:51:53;;;;;;;7.33;5.90;;;;;;;;;;5100971;28;20716;-63
2023/06/07 05:54:22;;;;;;;7.30;5.63;;;;;;;;;;5078686;28;20704;-61
2023/06/07 05:56:50;;;;;;;7.90;5.97;;;;;;;;;;5098052;28;20708;-62
2023/06/07 05:59:19;;;;;;;7.60;5.70;;;;;;;;;;5098834;28;20716;-62
2023/06/07 06:01:48;;;;;;;5.33;4.77;;;;;;;;;;5096780;28;20664;-62
2023/06/07 06:04:17;;;;;;;8.00;4.87;;;;;;;;;;5079712;28;20720;-62
2023/06/07 06:06:45;;;;;;;5.47;5.00;;;;;;;;;;5097579;28;21010;-62
2023/06/07 06:09:14;;;;;;;5.10;4.70;;;;;;;;;;5097994;28;20688;-63
2023/06/07 06:11:42;;;;;;;6.30;5.00;;;;;;;;;;5099269;28;20667;-62
2023/06/07 06:14:10;;;;;;;7.17;5.20;;;;;;;;;;5098533;28;20680;-62
2023/06/07 06:16:40;;;;;;;5.60;5.20;;;;;;;;;;5090577;28;20692;-62
2023/06/07 06:19:08;;;;;;;7.10;4.77;;;;;;;;;;5118577;28;20677;-62
2023/06/07 06:21:37;;;;;;;6.47;5.20;;;;;;;;;;5084955;28;20724;-64
2023/06/07 06:24:05;;;;;;;10.77;5.97;;;;;;;;;;5097110;28;20620;-63
2023/06/07 06:26:33;;;;;;;6.27;5.67;;;;;;;;;;5094824;28;20774;-63
2023/06/07 06:29:02;;;;;;;7.90;5.73;;;;;;;;;;5094802;28;20601;-63
2023/06/07 06:31:30;;;;;;;7.20;5.50;;;;;;;;;;5095533;28;20689;-62
2023/06/07 06:34:00;;;;;;;7.20;5.50;;;;;;;;;;5097562;28;20696;-62
2023/06/07 06:36:28;;;;;;;6.30;4.80;;;;;;;;;;5080100;28;20797;-63
2023/06/07 06:38:56;;;;;;;9.63;4.93;;;;;;;;;;5080467;28;20269;-64
2023/06/07 06:41:25;;;;;;;4.93;4.63;;;;;;;;;;5083029;28;21277;-65
2023/06/07 06:43:54;;;;;;;5.10;4.77;;;;;;;;;;5081861;28;20720;-63
2023/06/07 06:46:23;;;;;;;5.33;4.60;;;;;;;;;;5080368;28;20836;-63
2023/06/07 06:48:51;;;;;;;14.33;5.80;;;;;;;;;;5100421;28;20681;-62
2023/06/07 06:51:20;;;;;;;7.63;5.10;;;;;;;;;;5084643;28;20688;-63
2023/06/07 06:53:49;;;;;;;5.20;4.67;;;;;;;;;;5099819;28;20681;-62
2023/06/07 06:56:17;;;;;;;4.10;3.80;;;;;;;;;;5079055;28;20708;-62
2023/06/07 06:58:46;;;;;;;5.87;5.33;;;;;;;;;;5097233;28;20751;-62
2023/06/07 07:01:15;;;;;;;5.07;4.77;;;;;;;;;;5099663;28;20766;-63
2023/06/07 07:03:43;;;;;;;5.23;4.87;;;;;;;;;;5101761;28;20751;-62
2023/06/07 07:06:12;;;;;;;5.97;4.87;;;;;;;;;;5102185;28;20703;-63
2023/06/07 07:08:41;;;;;;;5.10;4.70;;;;;;;;;;5083950;28;20712;-63
2023/06/07 07:11:09;;;;;;;4.77;4.50;;;;;;;;;;5100974;28;20724;-62
2023/06/07 07:13:37;;;;;;;4.83;4.53;;;;;;;;;;5098177;28;20619;-63
2023/06/07 07:16:06;;;;;;;10.50;5.20;;;;;;;;;;5098407;28;21222;-66
2023/06/07 07:18:34;;;;;;;8.00;5.47;;;;;;;;;;5101042;28;20778;-63
2023/06/07 07:21:02;;;;;;;5.80;5.30;;;;;;;;;;5102597;28;21054;-63
2023/06/07 07:23:31;;;;;;;5.20;4.90;;;;;;;;;;5084253;28;20794;-63
2023/06/07 07:26:00;;;;;;;4.87;4.27;;;;;;;;;;5083793;28;20626;-63
2023/06/07 07:28:28;;;;;;;5.10;4.70;;;;;;;;;;5084263;28;20725;-63
2023/06/07 07:30:57;;;;;;;4.57;4.27;;;;;;;;;;5101452;28;21128;-63
2023/06/07 07:33:25;;;;;;;6.00;5.50;;;;;;;;;;5080043;28;21250;-63
2023/06/07 07:35:54;;;;;;;4.77;4.37;;;;;;;;;;5100540;28;20708;-62
2023/06/07 07:38:22;;;;;;;5.00;4.60;;;;;;;;;;5100378;28;20700;-63
2023/06/07 07:40:50;;;;;;;5.20;4.90;;;;;;;;;;5101787;28;20774;-63
2023/06/07 07:43:20;;;;;;;7.20;4.97;;;;;;;;;;5100835;28;20715;-63
2023/06/07 07:45:48;;;;;;;4.17;3.97;;;;;;;;;;5082708;28;20671;-63
2023/06/07 07:48:17;;;;;;;4.83;4.40;;;;;;;;;;5084086;28;20700;-63
2023/06/07 07:50:45;;;;;;;5.13;4.73;;;;;;;;;;5102102;28;20732;-63
2023/06/07 07:53:13;;;;;;;4.67;4.20;;;;;;;;;;5101862;28;20709;-64
2023/06/07 07:55:42;;;;;;;5.90;3.87;;;;;;;;;;5102111;28;20676;-63
2023/06/07 07:58:10;;;;;;;4.57;4.27;;;;;;;;;;5083915;28;20742;-64
2023/06/07 08:00:41;;;;;;;4.27;3.97;;;;;;;;;;5100805;28;21092;-63
2023/06/07 08:03:09;;;;;;;4.63;4.10;;;;;;;;;;5095889;28;21282;-64
2023/06/07 08:05:38;;;;;;;4.93;4.27;;;;;;;;;;5100069;28;20727;-63
2023/06/07 08:08:06;;;;;;;3.87;3.57;;;;;;;;;;5100162;28;20712;-66
2023/06/07 08:10:34;;;;;;;4.10;3.90;;;;;;;;;;5101216;28;20728;-63
2023/06/07 08:13:05;;;;;;;3.97;3.77;;;;;;;;;;5104943;28;20605;-64
2023/06/07 08:15:33;;;;;;;4.07;3.77;;;;;;;;;;5099438;28;20692;-64
2023/06/07 08:18:04;;;;;;;4.03;3.83;;;;;;;;;;5086643;28;20692;-64
2023/06/07 08:20:32;;;;;;;3.70;3.50;;;;;;;;;;5102817;28;20625;-64
2023/06/07 08:23:01;;;;;;;4.13;3.83;;;;;;;;;;5070793;28;20736;-63
2023/06/07 08:25:29;;;;;;;6.03;4.00;;;;;;;;;;5088173;28;20716;-63
2023/06/07 08:27:57;;;;;;;4.40;4.10;;;;;;;;;;5101709;28;20705;-63
2023/06/07 08:30:26;;;;;;;3.53;3.43;;;;;;;;;;5082907;28;20707;-64
2023/06/07 08:32:56;;;;;;;6.30;4.50;;;;;;;;;;5103201;28;20681;-63
2023/06/07 08:35:30;;;;;;;3.67;3.57;;;;;;;;;;5081758;28;20633;-64
2023/06/07 08:38:00;;;;;;;3.87;3.57;;;;;;;;;;5082286;28;20766;-64
2023/06/07 08:40:28;;;;;;;3.77;3.43;;;;;;;;;;5082686;28;20721;-64
2023/06/07 08:42:58;;;;;;;3.93;3.73;;;;;;;;;;5100417;28;20708;-63
2023/06/07 08:45:27;;;;;;;4.10;3.90;;;;;;;;;;5100327;28;21135;-64
2023/06/07 08:47:58;;;;;;;3.50;3.30;;;;;;;;;;5101432;28;20728;-64
2023/06/07 08:50:26;;;;;;;3.73;3.53;;;;;;;;;;5100745;28;20707;-64
2023/06/07 08:52:56;;;;;;;3.87;3.67;;;;;;;;;;5082277;28;20689;-64
2023/06/07 08:55:26;;;;;;;4.33;3.90;;;;;;;;;;5081388;28;20704;-63
2023/06/07 08:57:55;;;;;;;5.00;4.07;;;;;;;;;;5100968;28;20708;-63
2023/06/07 09:00:24;;;;;;;4.10;3.90;;;;;;;;;;5081802;28;20811;-66
2023/06/07 09:02:53;;;;;;;3.33;3.23;;;;;;;;;;5080100;28;20674;-64
2023/06/07 09:05:22;;;;;;;3.93;3.73;;;;;;;;;;5099040;28;20712;-64
2023/06/07 09:07:50;;;;;;;3.87;3.67;;;;;;;;;;5082233;28;20730;-63
2023/06/07 09:10:20;;;;;;;4.37;4.07;;;;;;;;;;5100500;28;20743;-64
2023/06/07 09:12:49;;;;;;;5.50;4.60;;;;;;;;;;5099124;28;20881;-64
2023/06/07 09:15:19;;;;;;;4.20;4.00;;;;;;;;;;5100598;28;20674;-65
2023/06/07 09:17:54;;;;;;;9.70;4.30;;;;;;;;;;5088867;28;21046;-63
2023/06/07 09:20:22;;;;;;;4.87;4.57;;;;;;;;;;5082302;28;20670;-64
2023/06/07 09:23:00;;;;;;;4.53;4.30;;;;;;;;;;5097430;28;20716;-64
2023/06/07 09:25:31;;;;;;;5.03;4.73;;;;;;;;;;5097627;28;20680;-63
2023/06/07 09:27:59;;;;;;;4.97;4.57;;;;;;;;;;5079565;28;20670;-64
2023/06/07 09:30:28;;;;;;;11.47;5.93;;;;;;;;;;5079452;28;20754;-64
2023/06/07 09:32:57;;;;;;;4.97;4.67;;;;;;;;;;5078572;28;20708;-64
2023/06/07 09:35:25;;;;;;;4.80;4.60;;;;;;;;;;5079138;28;20613;-66
2023/06/07 09:37:54;;;;;;;4.53;4.33;;;;;;;;;;5093270;28;20637;-65
2023/06/07 09:40:24;;;;;;;4.13;3.87;;;;;;;;;;5096172;28;20712;-64
2023/06/07 09:43:00;;;;;;;4.70;4.40;;;;;;;;;;5096519;28;20700;-63
2023/06/07 09:45:29;;;;;;;4.70;4.40;;;;;;;;;;5094418;28;21907;-64
2023/06/07 09:48:03;;;;;;;5.50;4.77;;;;;;;;;;5094592;28;20696;-64
2023/06/07 09:50:32;;;;;;;7.93;4.80;;;;;;;;;;5096717;28;20688;-63
2023/06/07 09:53:01;;;;;;;4.37;4.03;;;;;;;;;;5078274;28;20708;-64
2023/06/07 09:55:30;;;;;;;7.43;4.10;;;;;;;;;;5097141;28;20696;-64
2023/06/07 09:57:59;;;;;;;4.00;3.80;;;;;;;;;;5088185;28;20693;-64
2023/06/07 10:00:28;;;;;;;4.60;4.30;;;;;;;;;;5057062;28;20713;-64
2023/06/07 10:03:06;;;;;;;4.53;4.33;;;;;;;;;;5051471;28;21069;-64
2023/06/07 10:05:34;;;;;;;4.17;3.87;;;;;;;;;;5055663;28;20654;-64
2023/06/07 10:08:03;;;;;;;4.87;4.47;;;;;;;;;;5057477;28;20698;-64
2023/06/07 10:10:32;;;;;;;4.50;4.30;;;;;;;;;;5073820;28;20703;-64
2023/06/07 10:13:04;;;;;;;4.60;4.30;;;;;;;;;;5056198;28;20686;-64
2023/06/07 10:15:33;;;;;;;10.00;4.33;;;;;;;;;;5055215;28;20675;-63
2023/06/07 10:18:06;;;;;;;4.20;4.00;;;;;;;;;;5054851;28;21098;-64
2023/06/07 10:20:36;;;;;;;131.73;10.90;;;;;;;;;;5056689;28;20670;-64
2023/06/07 10:23:05;;;;;;;4.17;3.90;;;;;;;;;;5055860;28;20671;-64
2023/06/07 10:25:36;;;;;;;4.60;4.30;;;;;;;;;;5056264;28;20661;-64
2023/06/07 10:28:14;;;;;;;4.60;4.37;;;;;;;;;;5056086;28;20663;-64
2023/06/07 10:30:46;;;;;;;4.60;4.30;;;;;;;;;;5056826;28;21047;-63
2023/06/07 10:33:14;;;;;;;9.10;5.20;;;;;;;;;;5071793;28;21217;-64
2023/06/07 10:35:42;;;;;;;4.10;3.90;;;;;;;;;;5055442;28;20704;-64
2023/06/07 10:38:11;;;;;;;4.83;4.33;;;;;;;;;;5054849;28;20690;-64
2023/06/07 10:40:40;;;;;;;4.57;4.37;;;;;;;;;;5055136;28;20619;-64
2023/06/07 10:43:08;;;;;;;4.30;4.00;;;;;;;;;;5070542;28;20622;-64
2023/06/07 10:45:38;;;;;;;5.17;4.77;;;;;;;;;;5054922;28;20651;-65
2023/06/07 10:48:33;;;;;;;5.23;4.83;;;;;;;;;;5055958;28;20699;-64
2023/06/07 10:51:01;;;;;;;8.33;7.83;;;;;;;;;;5057172;28;20678;-64
2023/06/07 10:53:46;;;;;;;4.90;4.60;;;;;;;;;;5054786;28;20683;-64
2023/06/07 10:56:30;;;;;;;5.27;4.93;;;;;;;;;;5056102;28;20651;-64
2023/06/07 10:59:00;;;;;;;5.10;4.70;;;;;;;;;;5062263;28;20718;-64
2023/06/07 11:01:30;;;;;;;5.13;4.70;;;;;;;;;;5074754;28;21085;-64
2023/06/07 11:03:58;;;;;;;5.07;4.87;;;;;;;;;;5074771;28;20708;-65
2023/06/07 11:06:28;;;;;;;5.17;4.87;;;;;;;;;;5073300;28;20713;-64
2023/06/07 11:09:12;;;;;;;5.47;5.17;;;;;;;;;;5075643;28;20686;-64
2023/06/07 11:11:45;;;;;;;5.47;4.97;;;;;;;;;;5074173;28;20638;-64
2023/06/07 11:14:13;;;;;;;5.23;4.77;;;;;;;;;;5075625;28;20668;-64
2023/06/07 11:16:43;;;;;;;6.33;5.37;;;;;;;;;;5073199;28;20640;-64
2023/06/07 11:19:13;;;;;;;4.87;4.67;;;;;;;;;;5073624;28;20618;-64
2023/06/07 11:22:14;;;;;;;5.87;5.50;;;;;;;;;;5073674;28;20667;-65
2023/06/07 11:24:42;;;;;;;11.07;6.30;;;;;;;;;;4985219;28;20655;-64
2023/06/07 11:27:13;;;;;;;5.83;5.50;;;;;;;;;;4970710;28;20625;-64
2023/06/07 11:29:43;;;;;;;6.53;6.13;;;;;;;;;;5033959;28;20697;-64
2023/06/07 11:32:14;;;;;;;6.13;5.73;;;;;;;;;;5073271;28;21238;-65
2023/06/07 11:34:42;;;;;;;5.77;5.20;;;;;;;;;;5060561;28;20706;-64
2023/06/07 11:37:16;;;;;;;5.60;5.30;;;;;;;;;;5079804;28;20694;-63
2023/06/07 11:39:45;;;;;;;5.87;5.57;;;;;;;;;;5078010;28;21024;-64
2023/06/07 11:42:13;;;;;;;5.30;5.10;;;;;;;;;;5079082;28;20701;-65
2023/06/07 11:44:42;;;;;;;7.47;5.70;;;;;;;;;;5078449;28;20725;-64
2023/06/07 11:47:11;;;;;;;6.07;5.73;;;;;;;;;;5076728;28;20717;-64
2023/06/07 11:49:41;;;;;;;5.70;5.30;;;;;;;;;;5081194;28;20670;-63
2023/06/07 11:52:10;;;;;;;6.70;5.50;;;;;;;;;;5081332;28;20693;-63
2023/06/07 11:54:43;;;;;;;5.70;5.40;;;;;;;;;;5081174;28;20756;-63
2023/06/07 11:57:11;;;;;;;6.10;5.70;;;;;;;;;;5080686;28;22209;-63
2023/06/07 11:59:42;;;;;;;6.67;6.27;;;;;;;;;;5072983;28;21022;-64
2023/06/07 12:02:11;;;;;;;6.17;5.70;;;;;;;;;;5072788;28;20586;-64
2023/06/07 12:04:43;;;;;;;6.27;5.70;;;;;;;;;;5072112;28;20660;-63
2023/06/07 12:07:21;;;;;;;8.27;5.87;;;;;;;;;;5073462;28;20594;-62
2023/06/07 12:09:53;;;;;;;5.80;5.30;;;;;;;;;;5073932;28;20653;-62
2023/06/07 12:12:23;;;;;;;5.87;5.57;;;;;;;;;;5073904;28;20597;-63
2023/06/07 12:15:00;;;;;;;6.77;5.90;;;;;;;;;;5073354;28;20651;-63
2023/06/07 12:17:34;;;;;;;6.43;5.90;;;;;;;;;;5073214;28;20582;-63
2023/06/07 12:20:11;;;;;;;6.10;5.80;;;;;;;;;;5073236;28;20715;-63
2023/06/07 12:22:39;;;;;;;5.63;5.30;;;;;;;;;;5071203;28;20582;-63
2023/06/07 12:25:09;;;;;;;6.30;5.80;;;;;;;;;;5073341;28;20660;-63
2023/06/07 12:27:37;;;;;;;6.40;6.10;;;;;;;;;;5073312;28;20616;-63
2023/06/07 12:30:07;;;;;;;6.63;6.33;;;;;;;;;;5072866;28;20626;-65
2023/06/07 12:32:35;;;;;;;6.33;5.97;;;;;;;;;;5072393;28;20606;-63
2023/06/07 12:35:05;;;;;;;6.97;6.57;;;;;;;;;;5073413;28;20629;-63
2023/06/07 12:37:36;;;;;;;6.57;6.07;;;;;;;;;;5073288;28;20991;-63
2023/06/07 12:40:05;;;;;;;6.50;6.07;;;;;;;;;;5073033;28;20594;-63
2023/06/07 12:42:33;;;;;;;6.40;6.00;;;;;;;;;;5073381;28;20618;-63
2023/06/07 12:45:02;;;;;;;6.20;5.90;;;;;;;;;;5072941;28;20649;-63
2023/06/07 12:47:30;;;;;;;5.97;5.50;;;;;;;;;;5073653;28;20614;-63
2023/06/07 12:49:59;;;;;;;6.10;5.63;;;;;;;;;;5072525;28;20626;-63
2023/06/07 12:52:27;;;;;;;5.60;5.30;;;;;;;;;;5072536;28;20614;-63
2023/06/07 12:54:57;;;;;;;5.53;5.17;;;;;;;;;;5072604;28;20625;-63
2023/06/07 12:57:25;;;;;;;5.73;5.43;;;;;;;;;;5072544;28;21002;-63
2023/06/07 12:59:53;;;;;;;6.00;5.40;;;;;;;;;;5087132;28;20649;-63
2023/06/07 13:02:21;;;;;;;5.30;5.00;;;;;;;;;;5073937;28;20609;-64
2023/06/07 13:04:49;;;;;;;5.33;5.13;;;;;;;;;;5092216;28;20617;-63
2023/06/07 13:07:19;;;;;;;5.97;5.47;;;;;;;;;;5075029;28;21178;-63
2023/06/07 13:09:47;;;;;;;6.20;5.83;;;;;;;;;;5092773;28;20663;-64
2023/06/07 13:12:17;;;;;;;5.83;5.60;;;;;;;;;;5093002;28;20616;-63
2023/06/07 13:14:46;;;;;;;5.50;5.30;;;;;;;;;;5091328;28;20625;-64
2023/06/07 13:17:15;;;;;;;5.83;5.40;;;;;;;;;;5091889;28;21175;-63
2023/06/07 13:19:45;;;;;;;6.43;6.03;;;;;;;;;;5091796;28;21176;-63
2023/06/07 13:22:13;;;;;;;5.80;5.50;;;;;;;;;;5092410;28;21194;-64
2023/06/07 13:24:41;;;;;;;6.07;5.77;;;;;;;;;;5092161;28;20629;-63
2023/06/07 13:27:10;;;;;;;6.30;5.80;;;;;;;;;;5092568;28;20758;-64
2023/06/07 13:29:39;;;;;;;15.77;6.43;;;;;;;;;;5093041;28;20629;-63
2023/06/07 13:32:08;;;;;;;5.90;5.70;;;;;;;;;;5092185;28;20621;-63
2023/06/07 13:34:36;;;;;;;6.23;5.73;;;;;;;;;;5089273;28;20636;-64
2023/06/07 13:37:04;;;;;;;9.23;7.73;;;;;;;;;;5093180;28;20628;-62
2023/06/07 13:39:32;;;;;;;6.00;5.60;;;;;;;;;;5091162;28;20647;-63
2023/06/07 13:42:01;;;;;;;6.07;5.70;;;;;;;;;;5092305;28;20643;-63
2023/06/07 13:44:29;;;;;;;5.33;5.00;;;;;;;;;;5073893;28;20944;-62
2023/06/07 13:46:59;;;;;;;5.70;5.07;;;;;;;;;;5092337;28;20661;-63
2023/06/07 13:49:27;;;;;;;5.67;5.27;;;;;;;;;;5092498;28;21187;-63
2023/06/07 13:51:55;;;;;;;5.63;5.23;;;;;;;;;;5092678;28;20637;-63
2023/06/07 13:54:23;;;;;;;6.90;5.33;;;;;;;;;;5072766;28;20606;-63
2023/06/07 13:56:52;;;;;;;5.90;5.60;;;;;;;;;;5082242;28;20991;-63
2023/06/07 13:59:20;;;;;;;5.17;4.97;;;;;;;;;;5091963;28;20656;-64
2023/06/07 14:01:48;;;;;;;5.70;5.30;;;;;;;;;;5090717;28;20625;-63
2023/06/07 14:04:18;;;;;;;5.67;5.30;;;;;;;;;;5092509;28;20617;-63
2023/06/07 14:06:46;;;;;;;5.50;5.30;;;;;;;;;;5092559;28;20661;-64
2023/06/07 14:09:15;;;;;;;5.30;4.90;;;;;;;;;;5090772;28;21024;-63
2023/06/07 14:11:44;;;;;;;5.07;4.87;;;;;;;;;;5092204;28;20680;-64
2023/06/07 14:14:12;;;;;;;10.33;5.07;;;;;;;;;;5092381;28;20689;-63
2023/06/07 14:16:40;;;;;;;5.33;5.03;;;;;;;;;;5091885;28;20617;-63
2023/06/07 14:19:08;;;;;;;5.30;4.80;;;;;;;;;;5092336;28;20617;-63
2023/06/07 14:21:38;;;;;;;15.73;6.40;;;;;;;;;;5092320;28;20613;-63
2023/06/07 14:24:06;;;;;;;5.00;4.80;;;;;;;;;;5092653;28;20617;-64
2023/06/07 14:26:36;;;;;;;5.80;5.50;;;;;;;;;;5092087;28;20649;-63
2023/06/07 14:29:04;;;;;;;4.93;4.73;;;;;;;;;;5092665;28;20617;-62
2023/06/07 14:31:32;;;;;;;5.37;4.97;;;;;;;;;;5092829;28;20617;-63
2023/06/07 14:34:01;;;;;;;5.10;4.80;;;;;;;;;;5091335;28;21060;-63
2023/06/07 14:36:29;;;;;;;5.53;5.13;;;;;;;;;;5091881;28;21143;-63
2023/06/07 14:38:59;;;;;;;5.63;5.23;;;;;;;;;;5092265;28;20617;-62
2023/06/07 14:41:28;;;;;;;5.80;5.30;;;;;;;;;;5092195;28;20667;-63
2023/06/07 14:43:56;;;;;;;5.70;5.50;;;;;;;;;;5091396;28;20625;-63
2023/06/07 14:46:24;;;;;;;6.13;5.83;;;;;;;;;;5092424;28;20653;-63
2023/06/07 14:48:52;;;;;;;6.40;6.10;;;;;;;;;;5090653;28;20625;-63
2023/06/07 14:51:23;;;;;;;6.40;6.10;;;;;;;;;;5092100;28;20697;-63
2023/06/07 14:53:51;;;;;;;5.87;5.57;;;;;;;;;;5092161;28;20589;-63
2023/06/07 14:56:20;;;;;;;5.63;5.33;;;;;;;;;;5092352;28;20617;-63
2023/06/07 14:58:50;;;;;;;6.20;5.90;;;;;;;;;;5088594;28;20657;-63